BAW18B TXKF-EGLL
Flight info
| Callsign | BAW18B |
|---|---|
| Flight time | N/A |
| Altitude | 39000 |
| Route | BORNN1 BALOO DCT 3530N06000W 3930N05000W 43N040W 4630N03000W 50N020W DCT DINIM DCT ELSOX/N0467F390 DCT EVRIN DCT INFEC DCT JETZI DCT AMFUL DCT ORZEB/N0399F230 P2 SIRIC |
| Aircraft | B772/H-SDE2E3FGHIJ5LORVWXY/LB1D1 |
Departure
| Time | 2026-04-27 22:58 |
|---|---|
| Airport | L.F. Wade International Airport (TXKF) |
Arrival
| Time | N/A |
|---|---|
| Airport | London Heathrow Airport (EGLL) |
| Time | Latitude | Longitude | Altitude | Speed | Heading |
|---|---|---|---|---|---|
| 2026-04-27 22:05 | 32.36220 | -64.70281 | 26 ft | 0 kts | 247° |
| 2026-04-27 22:42 | 32.36222 | -64.70276 | 29 ft | 3 kts | 246° |
| 2026-04-27 22:42 | 32.36235 | -64.70249 | 27 ft | 4 kts | 230° |
| 2026-04-27 22:42 | 32.36254 | -64.70226 | 26 ft | 4 kts | 214° |
| 2026-04-27 22:42 | 32.36277 | -64.70212 | 27 ft | 4 kts | 195° |
| 2026-04-27 22:43 | 32.36302 | -64.70209 | 26 ft | 3 kts | 161° |
| 2026-04-27 22:43 | 32.36306 | -64.70210 | 26 ft | 0 kts | 157° |
| 2026-04-27 22:52 | 32.36287 | -64.70196 | 26 ft | 7 kts | 141° |
| 2026-04-27 22:52 | 32.36276 | -64.70135 | 29 ft | 8 kts | 79° |
| 2026-04-27 22:52 | 32.36296 | -64.70072 | 29 ft | 8 kts | 68° |
| 2026-04-27 22:52 | 32.36317 | -64.70010 | 29 ft | 8 kts | 68° |
| 2026-04-27 22:53 | 32.36339 | -64.69948 | 29 ft | 8 kts | 68° |
| 2026-04-27 22:53 | 32.36361 | -64.69887 | 29 ft | 8 kts | 66° |
| 2026-04-27 22:53 | 32.36383 | -64.69825 | 29 ft | 8 kts | 67° |
| 2026-04-27 22:53 | 32.36405 | -64.69763 | 29 ft | 8 kts | 67° |
| 2026-04-27 22:54 | 32.36427 | -64.69702 | 30 ft | 8 kts | 67° |
| 2026-04-27 22:54 | 32.36452 | -64.69631 | 29 ft | 11 kts | 67° |
| 2026-04-27 22:54 | 32.36489 | -64.69529 | 30 ft | 14 kts | 68° |
| 2026-04-27 22:54 | 32.36529 | -64.69436 | 30 ft | 11 kts | 46° |
| 2026-04-27 22:55 | 32.36553 | -64.69419 | 30 ft | 0 kts | 21° |
| 2026-04-27 22:56 | 32.36556 | -64.69418 | 30 ft | 3 kts | 20° |
| 2026-04-27 22:56 | 32.36607 | -64.69402 | 30 ft | 9 kts | 12° |
| 2026-04-27 22:56 | 32.36655 | -64.69372 | 31 ft | 7 kts | 60° |
| 2026-04-27 22:56 | 32.36652 | -64.69315 | 31 ft | 10 kts | 99° |
| 2026-04-27 22:57 | 32.36623 | -64.69116 | 30 ft | 39 kts | 102° |
| 2026-04-27 22:57 | 32.36546 | -64.68703 | 32 ft | 66 kts | 102° |
| 2026-04-27 22:57 | 32.36408 | -64.67884 | 30 ft | 142 kts | 101° |
| 2026-04-27 22:57 | 32.36179 | -64.66490 | 363 ft | 186 kts | 104° |
| 2026-04-27 22:58 | 32.35909 | -64.64933 | 903 ft | 207 kts | 105° |
| 2026-04-27 22:58 | 32.35626 | -64.63216 | 1573 ft | 212 kts | 107° |
| 2026-04-27 22:58 | 32.35347 | -64.61532 | 2299 ft | 210 kts | 106° |
| 2026-04-27 22:58 | 32.35056 | -64.59754 | 2604 ft | 232 kts | 107° |
| 2026-04-27 22:59 | 32.34811 | -64.57768 | 2848 ft | 256 kts | 97° |
| 2026-04-27 22:59 | 32.34951 | -64.55685 | 3586 ft | 258 kts | 80° |
| 2026-04-27 22:59 | 32.35692 | -64.53698 | 4276 ft | 270 kts | 57° |
| 2026-04-27 22:59 | 32.36981 | -64.52091 | 4871 ft | 274 kts | 41° |
| 2026-04-27 23:00 | 32.39943 | -64.49085 | 5751 ft | 287 kts | 42° |
| 2026-04-27 23:00 | 32.41493 | -64.47541 | 6177 ft | 294 kts | 39° |
| 2026-04-27 23:00 | 32.43115 | -64.46020 | 6708 ft | 298 kts | 38° |
| 2026-04-27 23:01 | 32.44731 | -64.44474 | 7372 ft | 300 kts | 40° |
| 2026-04-27 23:01 | 32.46327 | -64.42856 | 7977 ft | 303 kts | 41° |
| 2026-04-27 23:01 | 32.47907 | -64.41180 | 8573 ft | 307 kts | 43° |
| 2026-04-27 23:01 | 32.49484 | -64.39454 | 9147 ft | 311 kts | 43° |
| 2026-04-27 23:02 | 32.51068 | -64.37688 | 9735 ft | 314 kts | 44° |
| 2026-04-27 23:02 | 32.52665 | -64.35885 | 10186 ft | 321 kts | 44° |
| 2026-04-27 23:02 | 32.54323 | -64.34002 | 10346 ft | 339 kts | 44° |
| 2026-04-27 23:02 | 32.56071 | -64.32006 | 10488 ft | 358 kts | 44° |
| 2026-04-27 23:03 | 32.57900 | -64.29911 | 10831 ft | 371 kts | 44° |
| 2026-04-27 23:03 | 32.59775 | -64.27761 | 11396 ft | 380 kts | 44° |
| 2026-04-27 23:03 | 32.61684 | -64.25569 | 12121 ft | 384 kts | 44° |
| 2026-04-27 23:03 | 32.63612 | -64.23354 | 12990 ft | 387 kts | 43° |
| 2026-04-27 23:04 | 32.65553 | -64.21122 | 13831 ft | 391 kts | 43° |
| 2026-04-27 23:04 | 32.67522 | -64.18857 | 14541 ft | 396 kts | 43° |
| 2026-04-27 23:04 | 32.69512 | -64.16565 | 15240 ft | 401 kts | 43° |
| 2026-04-27 23:04 | 32.71529 | -64.14243 | 15945 ft | 406 kts | 43° |
| 2026-04-27 23:05 | 32.73567 | -64.11893 | 16626 ft | 411 kts | 43° |
| 2026-04-27 23:05 | 32.75630 | -64.09512 | 17340 ft | 415 kts | 42° |
| 2026-04-27 23:05 | 32.77686 | -64.07138 | 18034 ft | 419 kts | 42° |
| 2026-04-27 23:05 | 32.79785 | -64.04713 | 18637 ft | 423 kts | 42° |
| 2026-04-27 23:06 | 32.81913 | -64.02253 | 19166 ft | 428 kts | 42° |
| 2026-04-27 23:06 | 32.84053 | -63.99775 | 19726 ft | 432 kts | 42° |
| 2026-04-27 23:06 | 32.86214 | -63.97273 | 20319 ft | 435 kts | 42° |